createdAt,value
2018-04-12T00:02:13.857Z,2.80
2018-04-12T00:05:17.035Z,2.67
2018-04-12T00:08:20.425Z,2.77
2018-04-12T00:11:23.593Z,2.40
2018-04-12T00:14:26.941Z,2.63
2018-04-12T00:17:30.313Z,3.30
2018-04-12T00:20:33.615Z,3.50
2018-04-12T00:23:36.920Z,3.43
2018-04-12T00:26:40.136Z,3.50
2018-04-12T00:29:43.550Z,3.50
2018-04-12T00:32:46.817Z,3.67
2018-04-12T00:35:50.308Z,4.13
2018-04-12T00:38:53.920Z,3.63
2018-04-12T00:41:57.423Z,3.80
2018-04-12T00:45:00.722Z,4.13
2018-04-12T00:48:04.320Z,4.27
2018-04-12T00:51:07.514Z,4.30
2018-04-12T00:54:10.834Z,4.40
2018-04-12T00:57:14.213Z,4.30
2018-04-12T01:00:17.514Z,4.70
2018-04-12T01:03:20.800Z,3.93
2018-04-12T01:06:24.223Z,4.37
2018-04-12T01:09:27.445Z,4.50
2018-04-12T01:12:30.588Z,4.27
2018-04-12T01:15:33.949Z,4.63
2018-04-12T01:18:37.287Z,4.73
2018-04-12T01:21:40.512Z,4.60
2018-04-12T01:24:43.703Z,4.40
2018-04-12T01:27:47.005Z,4.80
2018-04-12T01:30:50.297Z,4.90
2018-04-12T01:33:53.565Z,4.57
2018-04-12T01:36:56.687Z,4.53
2018-04-12T01:39:59.984Z,4.47
2018-04-12T01:43:03.271Z,4.20
2018-04-12T01:46:06.583Z,4.73
2018-04-12T01:49:09.892Z,4.30
2018-04-12T01:52:13.147Z,4.10
2018-04-12T01:55:16.376Z,4.40
2018-04-12T01:58:19.651Z,3.80
2018-04-12T02:01:22.944Z,3.70
2018-04-12T02:04:26.353Z,4.33
2018-04-12T02:07:29.587Z,4.37
2018-04-12T02:10:32.835Z,4.60
2018-04-12T02:13:36.232Z,4.63
2018-04-12T02:16:39.565Z,4.73
2018-04-12T02:19:42.840Z,5.00
2018-04-12T02:22:46.182Z,5.33
2018-04-12T02:25:49.604Z,5.47
2018-04-12T02:28:52.961Z,5.33
2018-04-12T02:31:56.164Z,5.67
2018-04-12T02:34:59.550Z,5.23
2018-04-12T02:38:02.757Z,5.63
2018-04-12T02:41:06.017Z,5.90
2018-04-12T02:44:09.317Z,5.90
2018-04-12T02:47:12.548Z,5.93
2018-04-12T02:50:15.829Z,6.20
2018-04-12T02:53:19.145Z,6.40
2018-04-12T02:56:22.498Z,7.07
2018-04-12T02:59:25.809Z,6.53
2018-04-12T03:02:29.135Z,6.97
2018-04-12T03:05:32.507Z,6.47
2018-04-12T03:08:35.792Z,6.47
2018-04-12T03:11:39.206Z,6.10
2018-04-12T03:14:42.487Z,6.63
2018-04-12T03:17:45.708Z,6.67
2018-04-12T03:20:48.983Z,6.00
2018-04-12T03:23:52.220Z,6.60
2018-04-12T03:26:56.736Z,6.50
2018-04-12T03:30:00.009Z,6.80
2018-04-12T03:33:03.192Z,7.00
2018-04-12T03:36:06.648Z,6.90
2018-04-12T03:39:09.885Z,6.67
2018-04-12T03:42:13.076Z,7.07
2018-04-12T03:45:16.175Z,7.50
2018-04-12T03:48:19.739Z,7.67
2018-04-12T03:51:23.089Z,7.70
2018-04-12T03:54:26.494Z,8.10
2018-04-12T03:57:29.716Z,7.17
2018-04-12T04:00:33.077Z,7.60
2018-04-12T04:03:36.374Z,7.83
2018-04-12T04:06:39.599Z,6.77
2018-04-12T04:09:42.865Z,7.73
2018-04-12T04:12:46.152Z,7.60
2018-04-12T04:16:00.915Z,7.67
2018-04-12T04:20:13.370Z,8.10
2018-04-12T04:23:16.704Z,8.13
2018-04-12T04:26:19.956Z,9.60
2018-04-12T04:29:23.257Z,9.13
2018-04-12T04:32:27.584Z,8.73
2018-04-12T04:35:30.703Z,10.00
2018-04-12T04:38:33.965Z,8.83
2018-04-12T04:41:37.200Z,9.77
2018-04-12T04:44:40.581Z,9.40
2018-04-12T04:47:43.830Z,9.67
2018-04-12T04:50:47.151Z,9.80
2018-04-12T04:53:50.434Z,10.23
2018-04-12T04:56:53.668Z,9.57
2018-04-12T04:59:57.129Z,9.67
2018-04-12T05:03:00.428Z,10.63
2018-04-12T05:06:03.740Z,10.60
2018-04-12T05:09:07.157Z,10.60
2018-04-12T05:12:10.619Z,10.60
2018-04-12T05:15:13.932Z,10.20
2018-04-12T05:18:17.361Z,10.37
2018-04-12T05:21:20.769Z,10.50
2018-04-12T05:24:24.015Z,10.83
2018-04-12T05:27:27.784Z,11.33
2018-04-12T05:30:31.176Z,9.40
2018-04-12T05:33:34.457Z,10.30
2018-04-12T05:36:37.761Z,11.00
2018-04-12T05:39:41.182Z,9.73
2018-04-12T05:42:44.561Z,11.43
2018-04-12T05:45:47.851Z,10.90
2018-04-12T05:48:51.270Z,11.80
2018-04-12T05:51:54.687Z,11.97
2018-04-12T05:54:57.914Z,11.80
2018-04-12T05:58:01.250Z,12.57
2018-04-12T06:01:04.486Z,12.73
2018-04-12T06:04:07.793Z,11.83
2018-04-12T06:07:11.163Z,12.77
2018-04-12T06:10:14.516Z,12.97
2018-04-12T06:13:17.828Z,12.43
2018-04-12T06:16:21.196Z,12.13
2018-04-12T06:19:24.508Z,13.87
2018-04-12T06:22:27.777Z,14.17
2018-04-12T06:25:30.990Z,13.37
2018-04-12T06:28:34.297Z,12.80
2018-04-12T06:31:37.581Z,12.77
2018-04-12T06:34:40.786Z,11.27
2018-04-12T06:37:44.058Z,11.97
2018-04-12T06:40:47.421Z,12.60
2018-04-12T06:43:50.715Z,12.23
2018-04-12T06:46:54.419Z,10.97
2018-04-12T06:49:57.578Z,11.43
2018-04-12T06:53:00.852Z,10.83
2018-04-12T06:56:04.210Z,12.17
2018-04-12T06:59:07.496Z,11.20
2018-04-12T07:02:10.648Z,10.40
2018-04-12T07:05:14.103Z,10.60
2018-04-12T07:08:17.477Z,9.90
2018-04-12T07:11:20.668Z,10.00
2018-04-12T07:14:23.980Z,10.47
2018-04-12T07:17:27.393Z,10.00
2018-04-12T07:20:30.709Z,10.03
2018-04-12T07:23:34.000Z,9.97
2018-04-12T07:26:37.390Z,10.20
2018-04-12T07:29:41.693Z,9.60
2018-04-12T07:32:45.005Z,9.00
2018-04-12T07:35:48.192Z,8.73
2018-04-12T07:38:51.484Z,8.60
2018-04-12T07:41:54.789Z,9.07
2018-04-12T07:44:58.146Z,8.07
2018-04-12T07:48:01.446Z,8.00
2018-04-12T07:51:04.890Z,7.77
2018-04-12T07:54:08.427Z,8.17
2018-04-12T07:57:11.756Z,7.67
2018-04-12T08:00:15.083Z,7.30
2018-04-12T08:03:18.428Z,7.60
2018-04-12T08:06:21.848Z,7.57
2018-04-12T08:09:25.274Z,8.33
2018-04-12T08:12:28.829Z,7.07
2018-04-12T08:15:32.189Z,7.90
2018-04-12T08:18:35.610Z,7.43
2018-04-12T08:21:38.874Z,7.50
2018-04-12T08:24:42.278Z,7.67
2018-04-12T08:27:45.585Z,7.70
2018-04-12T08:30:48.888Z,7.17
2018-04-12T08:33:52.288Z,6.80
2018-04-12T08:36:55.702Z,6.67
2018-04-12T08:39:58.966Z,6.30
2018-04-12T08:43:02.434Z,6.73
2018-04-12T08:46:05.777Z,6.83
2018-04-12T08:49:09.069Z,6.70
2018-04-12T08:52:12.412Z,6.20
2018-04-12T08:55:15.732Z,6.60
2018-04-12T08:58:19.172Z,6.57
2018-04-12T09:01:22.535Z,6.33
2018-04-12T09:04:25.776Z,6.53
2018-04-12T09:07:29.017Z,5.33
2018-04-12T09:10:32.361Z,5.40
2018-04-12T09:13:35.732Z,5.87
2018-04-12T09:16:38.977Z,6.10
2018-04-12T09:19:42.256Z,6.43
2018-04-12T09:22:45.629Z,6.80
2018-04-12T09:25:48.955Z,7.17
2018-04-12T09:28:52.265Z,7.40
2018-04-12T09:31:55.762Z,7.03
2018-04-12T09:34:59.026Z,7.30
2018-04-12T09:38:02.266Z,7.07
2018-04-12T09:41:05.636Z,6.83
2018-04-12T09:44:08.942Z,6.97
2018-04-12T09:47:12.246Z,6.13
2018-04-12T09:50:15.429Z,7.00
2018-04-12T09:53:18.740Z,5.93
2018-04-12T09:56:22.026Z,6.10
2018-04-12T09:59:25.424Z,6.37
2018-04-12T10:02:28.868Z,6.50
2018-04-12T10:05:32.225Z,6.07
2018-04-12T10:08:39.482Z,6.30
2018-04-12T10:11:42.842Z,6.10
2018-04-12T10:14:46.205Z,6.33
2018-04-12T10:17:49.524Z,6.73
2018-04-12T10:20:52.913Z,6.43
2018-04-12T10:23:57.028Z,7.83
2018-04-12T10:27:00.269Z,7.40
2018-04-12T10:30:03.720Z,6.33
2018-04-12T10:33:06.923Z,4.80
2018-04-12T10:36:10.228Z,4.30
2018-04-12T10:39:13.618Z,3.87
2018-04-12T10:42:17.003Z,4.00
2018-04-12T10:45:20.261Z,4.50
2018-04-12T10:48:23.475Z,4.73
2018-04-12T10:51:26.655Z,4.20
2018-04-12T10:54:29.967Z,4.73
2018-04-12T10:57:33.452Z,5.33
2018-04-12T11:00:36.815Z,6.37
2018-04-12T11:03:40.063Z,6.43
2018-04-12T11:06:43.391Z,6.77
2018-04-12T11:09:46.798Z,6.00
2018-04-12T11:12:50.092Z,7.10
2018-04-12T11:15:54.400Z,7.10
2018-04-12T11:18:57.703Z,6.70
2018-04-12T11:22:00.975Z,7.23
2018-04-12T11:25:04.956Z,8.23
2018-04-12T11:28:08.190Z,7.40
2018-04-12T11:31:11.507Z,7.87
2018-04-12T11:34:14.829Z,7.90
2018-04-12T11:37:18.204Z,7.20
2018-04-12T11:40:21.535Z,6.63
2018-04-12T11:43:25.829Z,6.73
2018-04-12T11:46:29.260Z,6.50
2018-04-12T11:49:32.639Z,6.10
2018-04-12T11:52:36.325Z,6.60
2018-04-12T11:55:39.655Z,6.70
2018-04-12T11:58:43.013Z,6.70
2018-04-12T12:01:46.318Z,6.90
2018-04-12T12:04:49.576Z,6.77
2018-04-12T12:07:52.856Z,6.77
2018-04-12T12:10:56.225Z,6.50
2018-04-12T12:13:59.511Z,5.73
2018-04-12T12:17:02.783Z,7.00
2018-04-12T12:20:06.077Z,6.33
2018-04-12T12:23:09.413Z,6.10
2018-04-12T12:26:12.812Z,5.80
2018-04-12T12:29:15.957Z,5.67
2018-04-12T12:32:19.495Z,5.97
2018-04-12T12:35:23.256Z,5.00
2018-04-12T12:38:26.595Z,5.17
2018-04-12T12:41:30.046Z,5.73
2018-04-12T12:44:33.588Z,6.27
2018-04-12T12:47:36.905Z,5.60
2018-04-12T12:50:40.704Z,6.00
2018-04-12T12:53:44.106Z,6.67
2018-04-12T12:56:47.417Z,6.03
2018-04-12T12:59:50.788Z,7.53
2018-04-12T13:02:54.192Z,6.30
2018-04-12T13:05:57.638Z,6.40
2018-04-12T13:09:00.914Z,6.37
2018-04-12T13:12:04.245Z,6.70
2018-04-12T13:15:07.530Z,7.03
2018-04-12T13:18:10.712Z,7.20
2018-04-12T13:21:13.937Z,7.07
2018-04-12T13:24:17.132Z,6.77
2018-04-12T13:27:20.528Z,6.77
2018-04-12T13:30:24.010Z,6.03
2018-04-12T13:33:27.411Z,6.30
2018-04-12T13:36:30.540Z,6.23
2018-04-12T13:39:33.913Z,6.83
2018-04-12T13:42:37.374Z,6.47
2018-04-12T13:45:40.697Z,6.20
2018-04-12T13:48:44.059Z,6.40
2018-04-12T13:51:47.291Z,6.90
2018-04-12T13:54:50.755Z,6.60
2018-04-12T13:57:53.968Z,6.10
2018-04-12T14:00:57.272Z,6.83
2018-04-12T14:04:00.600Z,6.50
2018-04-12T14:07:04.139Z,7.00
2018-04-12T14:10:07.415Z,7.53
2018-04-12T14:13:10.752Z,7.77
2018-04-12T14:16:14.068Z,7.43
2018-04-12T14:19:17.623Z,6.90
2018-04-12T14:22:20.897Z,6.43
2018-04-12T14:25:24.245Z,7.10
2018-04-12T14:28:27.560Z,7.37
2018-04-12T14:31:31.329Z,7.20
2018-04-12T14:34:34.664Z,7.60
2018-04-12T14:37:37.867Z,7.20
2018-04-12T14:40:41.189Z,7.13
2018-04-12T14:43:44.312Z,8.20
2018-04-12T14:46:47.657Z,6.03
2018-04-12T14:49:51.038Z,7.97
2018-04-12T14:52:54.373Z,7.30
2018-04-12T14:55:57.582Z,8.17
2018-04-12T14:59:00.765Z,7.17
2018-04-12T15:02:04.996Z,7.53
2018-04-12T15:05:08.340Z,6.60
2018-04-12T15:08:11.539Z,7.93
2018-04-12T15:11:14.841Z,7.63
2018-04-12T15:14:18.251Z,7.37
2018-04-12T15:17:21.413Z,7.20
2018-04-12T15:20:24.710Z,7.20
2018-04-12T15:23:28.078Z,7.20
2018-04-12T15:26:31.399Z,6.60
2018-04-12T15:29:34.673Z,6.17
2018-04-12T15:32:38.630Z,6.10
2018-04-12T15:35:41.944Z,6.80
2018-04-12T15:38:45.343Z,5.50
2018-04-12T15:41:48.641Z,5.47
2018-04-12T15:44:51.912Z,6.40
2018-04-12T15:47:55.331Z,6.33
2018-04-12T15:50:58.547Z,5.30
2018-04-12T15:54:01.731Z,4.70
2018-04-12T15:57:05.101Z,5.70
2018-04-12T16:00:08.257Z,5.50
2018-04-12T16:03:11.445Z,5.50
2018-04-12T16:06:14.632Z,4.80
2018-04-12T16:09:17.995Z,4.60
2018-04-12T16:12:21.322Z,4.40
2018-04-12T16:15:24.585Z,4.50
2018-04-12T16:18:27.803Z,4.20
2018-04-12T16:21:30.998Z,4.00
2018-04-12T16:24:34.283Z,4.00
2018-04-12T16:27:37.720Z,3.63
2018-04-12T16:30:41.044Z,4.73
2018-04-12T16:33:44.512Z,3.97
2018-04-12T16:36:47.706Z,4.20
2018-04-12T16:39:51.108Z,4.23
2018-04-12T16:42:54.411Z,3.77
2018-04-12T16:45:57.807Z,3.70
2018-04-12T16:49:01.196Z,5.17
2018-04-12T16:52:04.449Z,3.43
2018-04-12T16:55:07.788Z,4.10
2018-04-12T16:58:11.193Z,3.70
2018-04-12T17:01:14.491Z,4.50
2018-04-12T17:04:17.834Z,3.90
2018-04-12T17:07:21.143Z,4.83
2018-04-12T17:10:24.509Z,4.30
2018-04-12T17:13:27.767Z,4.43
2018-04-12T17:16:31.177Z,3.60
2018-04-12T17:19:34.474Z,3.50
2018-04-12T17:22:37.765Z,3.70
2018-04-12T17:25:41.170Z,3.40
2018-04-12T17:28:44.466Z,3.50
2018-04-12T17:31:47.795Z,3.20
2018-04-12T17:34:51.092Z,3.20
2018-04-12T17:37:54.433Z,3.17
2018-04-12T17:40:57.736Z,3.30
2018-04-12T17:44:01.009Z,2.97
2018-04-12T17:47:04.366Z,3.40
2018-04-12T17:50:07.552Z,3.20
2018-04-12T17:53:10.859Z,2.93
2018-04-12T17:56:14.760Z,3.07
2018-04-12T17:59:18.087Z,3.30
2018-04-12T18:02:21.399Z,2.60
2018-04-12T18:05:24.874Z,3.00
2018-04-12T18:08:28.193Z,3.20
2018-04-12T18:11:32.562Z,3.60
2018-04-12T18:14:35.887Z,3.90
2018-04-12T18:17:39.567Z,3.97
2018-04-12T18:20:43.038Z,3.70
2018-04-12T18:23:46.253Z,3.47
2018-04-12T18:26:49.602Z,3.60
2018-04-12T18:29:52.919Z,4.00
2018-04-12T18:32:56.294Z,3.60
2018-04-12T18:35:59.578Z,3.33
2018-04-12T18:39:03.005Z,3.47
2018-04-12T18:42:06.315Z,3.97
2018-04-12T18:45:09.962Z,3.87
2018-04-12T18:48:13.406Z,3.17
2018-04-12T18:51:18.119Z,3.57
2018-04-12T18:54:21.522Z,3.77
2018-04-12T18:57:24.793Z,3.53
2018-04-12T19:00:28.186Z,3.23
2018-04-12T19:03:31.659Z,3.67
2018-04-12T19:06:35.195Z,3.80
2018-04-12T19:09:38.514Z,4.60
2018-04-12T19:12:41.939Z,4.37
2018-04-12T19:15:45.377Z,4.43
2018-04-12T19:18:48.730Z,4.17
2018-04-12T19:21:53.154Z,4.10
2018-04-12T19:24:56.571Z,4.10
2018-04-12T19:27:59.922Z,4.10
2018-04-12T19:31:03.522Z,4.40
2018-04-12T19:34:07.973Z,4.73
2018-04-12T19:37:11.183Z,4.47
2018-04-12T19:40:14.628Z,4.53
2018-04-12T19:43:18.048Z,4.30
2018-04-12T19:46:21.477Z,4.27
2018-04-12T19:49:24.819Z,4.17
2018-04-12T19:52:28.029Z,4.57
2018-04-12T19:55:32.094Z,3.80
2018-04-12T19:58:36.770Z,4.60
2018-04-12T20:01:41.531Z,4.03
2018-04-12T20:04:45.865Z,4.57
2018-04-12T20:07:50.988Z,5.03
2018-04-12T20:10:55.312Z,4.50
2018-04-12T20:14:00.299Z,4.57
2018-04-12T20:17:04.992Z,4.87
2018-04-12T20:20:08.520Z,4.93
2018-04-12T20:23:11.868Z,6.00
2018-04-12T20:26:15.319Z,5.73
2018-04-12T20:29:18.797Z,6.60
2018-04-12T20:32:22.256Z,6.93
2018-04-12T20:35:25.578Z,6.97
2018-04-12T20:38:28.792Z,7.27
2018-04-12T20:41:32.160Z,7.40
2018-04-12T20:44:35.472Z,7.67
2018-04-12T20:47:38.676Z,7.40
2018-04-12T20:50:41.832Z,7.00
2018-04-12T20:53:45.140Z,7.57
2018-04-12T20:56:48.435Z,6.33
2018-04-12T20:59:51.932Z,7.13
2018-04-12T21:02:55.289Z,7.33
2018-04-12T21:05:58.667Z,7.27
2018-04-12T21:09:02.054Z,6.63
2018-04-12T21:12:05.361Z,6.97
2018-04-12T21:15:09.098Z,6.83
2018-04-12T21:18:12.375Z,6.60
2018-04-12T21:21:15.759Z,6.73
2018-04-12T21:24:19.072Z,6.63
2018-04-12T21:27:22.582Z,6.20
2018-04-12T21:30:25.957Z,6.37
2018-04-12T21:33:30.921Z,6.50
2018-04-12T21:36:34.207Z,6.17
2018-04-12T21:39:37.613Z,7.27
2018-04-12T21:42:41.471Z,6.50
2018-04-12T21:45:44.732Z,7.33
2018-04-12T21:48:48.175Z,7.43
2018-04-12T21:51:51.584Z,7.50
2018-04-12T21:54:54.936Z,7.70
2018-04-12T21:57:58.324Z,7.67
2018-04-12T22:01:01.707Z,7.90
2018-04-12T22:04:05.004Z,8.13
2018-04-12T22:07:08.308Z,7.77
2018-04-12T22:10:11.669Z,7.87
2018-04-12T22:13:15.003Z,8.40
2018-04-12T22:16:18.298Z,8.63
2018-04-12T22:19:21.792Z,7.10
2018-04-12T22:22:25.104Z,7.53
2018-04-12T22:25:28.420Z,7.17
2018-04-12T22:28:31.808Z,8.43
2018-04-12T22:31:35.216Z,8.27
2018-04-12T22:34:38.506Z,8.30
2018-04-12T22:37:41.908Z,8.30
2018-04-12T22:40:45.192Z,7.57
2018-04-12T22:43:48.493Z,7.17
2018-04-12T22:46:51.885Z,7.10
2018-04-12T22:49:55.173Z,7.20
2018-04-12T22:52:58.461Z,7.27
2018-04-12T22:56:01.834Z,7.07
2018-04-12T22:59:05.104Z,7.57
2018-04-12T23:02:08.463Z,7.40
2018-04-12T23:05:11.674Z,6.87
2018-04-12T23:08:15.100Z,7.70
2018-04-12T23:11:18.443Z,7.53
2018-04-12T23:14:22.661Z,7.20
2018-04-12T23:17:25.896Z,7.10
2018-04-12T23:20:29.273Z,7.10
2018-04-12T23:23:32.637Z,7.47
2018-04-12T23:26:35.972Z,7.67
2018-04-12T23:29:39.189Z,7.50
2018-04-12T23:32:44.436Z,7.40
2018-04-12T23:35:47.798Z,7.67
2018-04-12T23:38:52.019Z,8.10
2018-04-12T23:41:55.415Z,7.33
2018-04-12T23:44:58.655Z,7.20
2018-04-12T23:48:02.005Z,7.63
2018-04-12T23:51:05.226Z,7.60
2018-04-12T23:54:08.608Z,7.60
2018-04-12T23:57:11.914Z,7.73
